Time;durP1;ratioP1;P1;durP2;ratioP2;P2;SDS_P1;SDS_P2;PMS_P1;PMS_P2;Temp;Humidity;BMP_temperature;BMP_pressure;BME280_temperature;BME280_humidity;BME280_pressure;Samples;Min_cycle;Max_cycle;Signal;HPM_P1;HPM_P2
2022/09/27 00:00:05;;;;;;;6.73;0.70;;;11.10;99.90;;;;;;5011473;28;20214;-52
2022/09/27 00:02:31;;;;;;;4.57;1.10;;;11.20;99.90;;;;;;5026765;28;20229;-52
2022/09/27 00:04:58;;;;;;;1.63;0.73;;;11.10;99.90;;;;;;5031245;28;20289;-53
2022/09/27 00:07:25;;;;;;;6.37;0.87;;;11.10;99.90;;;;;;5024611;28;20201;-54
2022/09/27 00:09:52;;;;;;;4.37;0.60;;;11.30;99.90;;;;;;5024868;28;20210;-54
2022/09/27 00:12:19;;;;;;;5.63;0.87;;;11.10;99.90;;;;;;5023021;28;20205;-53
2022/09/27 00:14:45;;;;;;;2.43;0.60;;;11.20;99.90;;;;;;5029707;28;20207;-53
2022/09/27 00:17:12;;;;;;;5.47;0.93;;;11.30;99.90;;;;;;5022127;28;20202;-52
2022/09/27 00:19:39;;;;;;;3.33;0.70;;;11.30;99.90;;;;;;5023411;28;20203;-54
2022/09/27 00:22:06;;;;;;;7.10;1.00;;;11.30;99.90;;;;;;5029809;28;20209;-53
2022/09/27 00:24:33;;;;;;;1.83;0.40;;;11.10;99.90;;;;;;5023411;28;20222;-54
2022/09/27 00:27:00;;;;;;;4.60;0.90;;;11.20;99.90;;;;;;5019506;28;20202;-54
2022/09/27 00:29:28;;;;;;;1.97;0.60;;;11.30;99.90;;;;;;5021204;28;20683;-54
2022/09/27 00:31:54;;;;;;;2.43;0.57;;;11.30;99.90;;;;;;5022329;28;20219;-54
2022/09/27 00:34:24;;;;;;;1.60;0.40;;;11.20;99.90;;;;;;5023306;28;20217;-54
2022/09/27 00:36:51;;;;;;;3.20;0.60;;;11.20;99.90;;;;;;5018828;28;20204;-53
2022/09/27 00:39:18;;;;;;;1.90;0.40;;;11.30;99.90;;;;;;5023364;28;20202;-53
2022/09/27 00:41:45;;;;;;;1.13;0.37;;;11.30;99.90;;;;;;5024538;28;20205;-52
2022/09/27 00:44:24;;;;;;;2.23;0.50;;;11.20;99.90;;;;;;5023898;28;20209;-54
2022/09/27 00:47:14;;;;;;;2.67;0.40;;;11.20;99.90;;;;;;5019320;28;20201;-54
2022/09/27 00:50:11;;;;;;;1.67;0.50;;;11.30;99.90;;;;;;5022947;28;20244;-53
2022/09/27 00:52:47;;;;;;;4.53;0.40;;;11.20;99.90;;;;;;5025149;28;20205;-53
2022/09/27 00:55:18;;;;;;;2.03;0.80;;;11.20;99.90;;;;;;5030405;28;20221;-53
2022/09/27 00:57:47;;;;;;;4.30;1.00;;;11.20;99.90;;;;;;5027978;28;20562;-53
2022/09/27 01:00:14;;;;;;;1.60;0.83;;;11.10;99.90;;;;;;5024149;28;20194;-53
2022/09/27 01:02:47;;;;;;;1.87;0.33;;;11.20;99.90;;;;;;5028212;28;20234;-52
2022/09/27 01:05:18;;;;;;;5.20;0.57;;;11.30;99.90;;;;;;5014860;28;20705;-51
2022/09/27 01:07:46;;;;;;;3.23;0.50;;;11.30;99.90;;;;;;5017804;28;20200;-52
2022/09/27 01:10:15;;;;;;;2.37;0.50;;;11.40;99.90;;;;;;5029326;28;20242;-53
2022/09/27 01:12:59;;;;;;;8.63;0.93;;;11.40;99.90;;;;;;5026799;28;20233;-53
2022/09/27 01:15:44;;;;;;;4.23;0.60;;;11.30;99.90;;;;;;5016967;28;20243;-52
2022/09/27 01:18:34;;;;;;;4.67;0.40;;;11.30;99.90;;;;;;5032534;28;20336;-52
2022/09/27 01:21:19;;;;;;;4.40;1.10;;;11.20;99.90;;;;;;5016374;28;20229;-52
2022/09/27 01:24:07;;;;;;;2.37;0.50;;;11.20;99.90;;;;;;5026274;28;20206;-53
2022/09/27 01:27:13;;;;;;;1.20;0.43;;;11.20;99.90;;;;;;5025319;28;20623;-52
2022/09/27 01:29:42;;;;;;;1.43;0.57;;;11.10;99.90;;;;;;5036873;28;20209;-52
2022/09/27 01:32:17;;;;;;;2.33;0.40;;;11.00;99.90;;;;;;5019487;28;20243;-55
2022/09/27 01:35:03;;;;;;;3.40;1.10;;;10.90;99.90;;;;;;5023192;28;20212;-54
2022/09/27 01:37:48;;;;;;;3.40;0.80;;;11.10;99.90;;;;;;5027393;28;20289;-55
2022/09/27 01:40:40;;;;;;;4.00;0.50;;;11.00;99.90;;;;;;5021897;28;20705;-54
2022/09/27 01:43:36;;;;;;;3.80;0.57;;;11.00;99.90;;;;;;5023269;28;20226;-55
2022/09/27 01:46:32;;;;;;;3.97;0.80;;;11.00;99.90;;;;;;5028274;28;20199;-53
2022/09/27 01:49:02;;;;;;;0.80;0.40;;;11.00;99.90;;;;;;5018059;28;20333;-53
2022/09/27 01:51:35;;;;;;;2.23;0.60;;;11.00;99.90;;;;;;5022298;28;20633;-53
2022/09/27 01:54:04;;;;;;;2.37;0.60;;;11.00;99.90;;;;;;5034667;28;20214;-54
2022/09/27 01:56:39;;;;;;;3.03;0.33;;;11.10;99.90;;;;;;5028823;28;20228;-53
2022/09/27 01:59:08;;;;;;;2.20;0.37;;;10.90;99.90;;;;;;5021985;28;20209;-54
2022/09/27 02:01:38;;;;;;;1.57;0.60;;;10.90;99.90;;;;;;5029815;28;20706;-52
2022/09/27 02:04:10;;;;;;;5.53;0.50;;;10.80;99.90;;;;;;5029875;28;20543;-52
2022/09/27 02:06:41;;;;;;;3.73;0.77;;;10.70;99.90;;;;;;5022339;28;20221;-52
2022/09/27 02:09:47;;;;;;;3.40;0.57;;;10.60;99.90;;;;;;5022193;28;20202;-55
2022/09/27 02:12:18;;;;;;;2.10;0.43;;;10.70;99.90;;;;;;5019032;28;20201;-54
2022/09/27 02:15:03;;;;;;;2.57;0.30;;;10.60;99.90;;;;;;5024747;28;20219;-54
2022/09/27 02:17:54;;;;;;;1.47;0.30;;;10.60;99.90;;;;;;5020837;28;20222;-53
2022/09/27 02:20:36;;;;;;;1.73;0.43;;;10.50;99.90;;;;;;5027749;28;20823;-53
2022/09/27 02:23:26;;;;;;;2.27;0.50;;;10.60;99.90;;;;;;5018276;28;20201;-53
2022/09/27 02:26:03;;;;;;;1.37;0.50;;;10.60;99.90;;;;;;5017405;28;20211;-52
2022/09/27 02:28:38;;;;;;;3.20;0.63;;;10.50;99.90;;;;;;5014452;28;20206;-53
2022/09/27 02:31:05;;;;;;;2.90;0.60;;;10.40;99.90;;;;;;5015298;28;20202;-55
2022/09/27 02:33:41;;;;;;;1.40;0.40;;;10.40;99.90;;;;;;5018863;28;20560;-55
2022/09/27 02:36:08;;;;;;;2.90;0.33;;;10.20;99.90;;;;;;5015708;28;20666;-53
2022/09/27 02:38:36;;;;;;;3.17;0.40;;;10.10;99.90;;;;;;5015072;28;20202;-53
2022/09/27 02:41:02;;;;;;;1.67;0.50;;;10.10;99.90;;;;;;5018651;28;20210;-53
2022/09/27 02:43:31;;;;;;;1.23;0.30;;;10.10;99.90;;;;;;5030627;28;20654;-52
2022/09/27 02:46:28;;;;;;;4.30;0.80;;;10.20;99.90;;;;;;5014030;28;20200;-53
2022/09/27 02:49:28;;;;;;;4.77;0.70;;;10.20;99.90;;;;;;5019214;28;20235;-52
2022/09/27 02:52:16;;;;;;;1.40;0.53;;;10.20;99.90;;;;;;5017508;28;20213;-53
2022/09/27 02:54:55;;;;;;;3.23;0.70;;;10.10;99.90;;;;;;5018231;28;20197;-51
2022/09/27 02:57:28;;;;;;;5.90;0.67;;;10.00;99.90;;;;;;5019206;28;20217;-52
2022/09/27 03:00:06;;;;;;;2.87;0.53;;;10.00;99.90;;;;;;5016839;28;20200;-51
2022/09/27 03:02:53;;;;;;;2.37;0.50;;;9.90;99.90;;;;;;5015407;28;20221;-53
2022/09/27 03:05:25;;;;;;;2.93;0.40;;;9.90;99.90;;;;;;5018188;28;21409;-52
2022/09/27 03:07:52;;;;;;;3.93;0.70;;;9.90;99.90;;;;;;5013806;28;20292;-52
2022/09/27 03:10:22;;;;;;;1.60;0.40;;;10.10;99.90;;;;;;5014441;28;20233;-53
2022/09/27 03:12:50;;;;;;;2.60;0.43;;;10.00;99.90;;;;;;5019367;28;20202;-52
2022/09/27 03:15:16;;;;;;;6.43;0.90;;;10.00;99.90;;;;;;5009264;28;20224;-52
2022/09/27 03:17:43;;;;;;;5.30;0.73;;;10.00;99.90;;;;;;5011404;28;20201;-51
2022/09/27 03:20:10;;;;;;;4.60;0.90;;;10.00;99.90;;;;;;5015861;28;20206;-53
2022/09/27 03:22:37;;;;;;;4.93;0.87;;;9.90;99.90;;;;;;5011317;28;20201;-53
2022/09/27 03:25:05;;;;;;;3.63;0.60;;;9.80;99.90;;;;;;5012458;28;20210;-53
2022/09/27 03:27:32;;;;;;;4.73;0.80;;;9.80;99.90;;;;;;5016893;28;20297;-52
2022/09/27 03:29:59;;;;;;;2.67;0.70;;;9.80;99.90;;;;;;5010844;28;20661;-51
2022/09/27 03:32:26;;;;;;;3.03;0.70;;;9.80;99.90;;;;;;5014374;28;20440;-52
2022/09/27 03:34:54;;;;;;;3.27;0.73;;;9.80;99.90;;;;;;5018124;28;20225;-52
2022/09/27 03:37:21;;;;;;;2.83;0.63;;;9.80;99.90;;;;;;5016839;28;20750;-55
2022/09/27 03:39:48;;;;;;;4.13;0.90;;;10.00;99.90;;;;;;5014250;28;20197;-54
2022/09/27 03:42:14;;;;;;;8.77;1.00;;;10.00;99.90;;;;;;5018663;28;20202;-52
2022/09/27 03:44:42;;;;;;;4.67;0.80;;;9.90;99.90;;;;;;5013279;28;20199;-52
2022/09/27 03:47:08;;;;;;;4.17;1.10;;;9.90;99.90;;;;;;5016368;28;20208;-54
2022/09/27 03:49:35;;;;;;;1.80;0.60;;;9.90;99.90;;;;;;5013705;28;20435;-52
2022/09/27 03:52:02;;;;;;;2.73;0.40;;;9.90;99.90;;;;;;5021416;28;20556;-53
2022/09/27 03:54:29;;;;;;;1.33;0.70;;;9.80;99.90;;;;;;5014583;28;20207;-53
2022/09/27 03:56:55;;;;;;;3.83;0.60;;;10.00;99.90;;;;;;5017517;28;20205;-54
2022/09/27 03:59:22;;;;;;;2.10;0.50;;;10.00;99.90;;;;;;5013165;28;20754;-54
2022/09/27 04:01:49;;;;;;;1.37;0.30;;;10.10;99.90;;;;;;5014277;28;20844;-53
2022/09/27 04:04:16;;;;;;;2.57;0.40;;;10.10;99.90;;;;;;5013734;28;20208;-58
2022/09/27 04:06:43;;;;;;;2.00;0.50;;;9.90;99.90;;;;;;5018572;28;20240;-52
2022/09/27 04:09:09;;;;;;;2.53;0.30;;;9.80;99.90;;;;;;5016936;28;20289;-52
2022/09/27 04:11:36;;;;;;;2.37;0.50;;;9.80;99.90;;;;;;5017340;28;20216;-53
2022/09/27 04:14:04;;;;;;;3.00;0.60;;;9.70;99.90;;;;;;5013854;28;20577;-52
2022/09/27 04:16:32;;;;;;;2.97;0.30;;;9.70;99.90;;;;;;5020899;28;20692;-55
2022/09/27 04:19:00;;;;;;;1.37;0.50;;;9.80;99.90;;;;;;5011710;28;20510;-52
2022/09/27 04:21:27;;;;;;;5.13;0.60;;;9.70;99.90;;;;;;5025709;28;20546;-53
2022/09/27 04:23:54;;;;;;;3.63;0.77;;;9.80;99.90;;;;;;5023814;28;20194;-52
2022/09/27 04:26:21;;;;;;;3.40;0.50;;;9.80;99.90;;;;;;5018357;28;20216;-54
2022/09/27 04:28:50;;;;;;;0.87;0.30;;;9.80;99.90;;;;;;5022524;28;20200;-53
2022/09/27 04:31:20;;;;;;;2.07;0.50;;;9.70;99.90;;;;;;5025936;28;20204;-54
2022/09/27 04:33:47;;;;;;;3.17;0.37;;;9.70;99.90;;;;;;5022307;28;20543;-53
2022/09/27 04:36:28;;;;;;;2.53;0.40;;;9.80;99.90;;;;;;5023615;28;20688;-53
2022/09/27 04:38:56;;;;;;;1.90;0.47;;;9.50;99.90;;;;;;5022337;28;20614;-52
2022/09/27 04:41:24;;;;;;;3.67;0.37;;;9.50;99.90;;;;;;5026294;28;20644;-53
2022/09/27 04:43:51;;;;;;;5.03;0.63;;;9.60;99.90;;;;;;5022517;28;20295;-53
2022/09/27 04:46:25;;;;;;;2.30;0.30;;;9.50;99.90;;;;;;5019657;28;20226;-53
2022/09/27 04:48:52;;;;;;;1.90;0.33;;;9.50;99.90;;;;;;5026577;28;20216;-54
2022/09/27 04:51:19;;;;;;;3.47;0.50;;;9.50;99.90;;;;;;5024996;28;20208;-53
2022/09/27 04:53:46;;;;;;;2.13;0.60;;;9.70;99.90;;;;;;5021138;28;20396;-52
2022/09/27 04:56:14;;;;;;;1.90;0.60;;;9.70;99.90;;;;;;5024401;28;20214;-54
2022/09/27 04:58:41;;;;;;;2.10;0.70;;;9.70;99.90;;;;;;5027896;28;20193;-53
2022/09/27 05:01:08;;;;;;;3.90;0.60;;;9.60;99.90;;;;;;5025823;28;20583;-52
2022/09/27 05:03:36;;;;;;;1.73;0.40;;;9.70;99.90;;;;;;5024102;28;20224;-52
2022/09/27 05:06:03;;;;;;;2.27;0.53;;;9.60;99.90;;;;;;5026931;28;20197;-54
2022/09/27 05:08:29;;;;;;;4.83;0.53;;;9.50;99.90;;;;;;5024668;28;20284;-52
2022/09/27 05:10:57;;;;;;;1.17;0.67;;;9.40;99.90;;;;;;5025497;28;20233;-52
2022/09/27 05:13:24;;;;;;;4.30;0.40;;;9.40;99.90;;;;;;5024543;28;20209;-55
2022/09/27 05:15:51;;;;;;;3.73;0.43;;;9.30;99.90;;;;;;5026257;28;20222;-54
2022/09/27 05:18:18;;;;;;;4.57;0.50;;;9.30;99.90;;;;;;5031039;28;20216;-54
2022/09/27 05:20:45;;;;;;;0.40;0.10;;;9.30;99.90;;;;;;5028963;28;20205;-52
2022/09/27 05:23:12;;;;;;;3.57;0.57;;;9.40;99.90;;;;;;5027636;28;20548;-52
2022/09/27 05:25:38;;;;;;;1.53;0.50;;;9.30;99.90;;;;;;5027777;28;20197;-54
2022/09/27 05:28:05;;;;;;;2.70;0.40;;;9.30;99.90;;;;;;5032096;28;20219;-53
2022/09/27 05:30:32;;;;;;;1.57;0.53;;;9.30;99.90;;;;;;5024287;28;20360;-54
2022/09/27 05:32:59;;;;;;;3.40;0.40;;;9.40;99.90;;;;;;5025426;28;20347;-53
2022/09/27 05:35:26;;;;;;;2.73;0.93;;;9.30;99.90;;;;;;5025561;28;20201;-54
2022/09/27 05:37:57;;;;;;;4.90;0.70;;;9.30;99.90;;;;;;5020464;28;20211;-53
2022/09/27 05:40:24;;;;;;;2.37;1.03;;;9.30;99.90;;;;;;5021645;28;20202;-53
2022/09/27 05:43:08;;;;;;;2.57;0.40;;;9.40;99.90;;;;;;5018286;28;20229;-53
2022/09/27 05:45:35;;;;;;;2.20;0.37;;;9.40;99.90;;;;;;5015425;28;20250;-54
2022/09/27 05:48:03;;;;;;;2.40;0.60;;;9.30;99.90;;;;;;5025113;28;20636;-54
2022/09/27 05:50:30;;;;;;;1.47;0.50;;;9.20;99.90;;;;;;5016861;28;20290;-54
2022/09/27 05:52:56;;;;;;;2.20;0.50;;;9.30;99.90;;;;;;5020066;28;20212;-53
2022/09/27 05:55:23;;;;;;;3.33;0.67;;;9.30;99.90;;;;;;5015679;28;20314;-54
2022/09/27 05:57:57;;;;;;;2.37;0.83;;;9.40;99.90;;;;;;4658289;28;10000074;-53
2022/09/27 06:00:25;;;;;;;2.27;0.47;;;9.50;99.90;;;;;;5008289;28;20369;-53
2022/09/27 06:02:58;;;;;;;1.57;0.30;;;9.50;99.90;;;;;;5018218;28;20216;-53
2022/09/27 06:05:27;;;;;;;1.40;0.40;;;9.50;99.90;;;;;;5016268;28;20219;-53
2022/09/27 06:08:02;;;;;;;0.97;0.50;;;9.50;99.90;;;;;;5019718;28;20204;-52
2022/09/27 06:10:30;;;;;;;0.63;0.30;;;9.60;99.90;;;;;;5014489;28;20200;-53
2022/09/27 06:13:05;;;;;;;0.73;0.50;;;9.50;99.90;;;;;;5014242;28;20774;-51
2022/09/27 06:15:33;;;;;;;0.97;0.50;;;9.40;99.90;;;;;;5016797;28;20292;-51
2022/09/27 06:18:13;;;;;;;1.13;0.50;;;9.50;99.90;;;;;;5015487;28;20521;-53
2022/09/27 06:20:41;;;;;;;2.63;0.70;;;9.60;99.90;;;;;;5020632;28;20565;-53
2022/09/27 06:23:11;;;;;;;0.87;0.50;;;9.60;99.90;;;;;;5020040;28;20211;-53
2022/09/27 06:25:39;;;;;;;3.47;0.60;;;9.60;99.90;;;;;;5012725;28;20203;-53
2022/09/27 06:28:08;;;;;;;0.73;0.50;;;9.60;99.90;;;;;;5016929;28;20196;-52
2022/09/27 06:30:38;;;;;;;2.73;0.60;;;9.50;99.90;;;;;;5018988;28;20204;-53
2022/09/27 06:33:05;;;;;;;0.37;0.37;;;9.40;99.90;;;;;;5016573;28;20205;-52
2022/09/27 06:35:34;;;;;;;0.83;0.40;;;9.50;99.90;;;;;;5018101;28;20192;-52
2022/09/27 06:38:03;;;;;;;2.33;0.60;;;9.40;99.90;;;;;;5010413;28;20216;-52
2022/09/27 06:40:30;;;;;;;2.30;0.40;;;9.50;99.90;;;;;;5019103;28;20219;-55
2022/09/27 06:43:06;;;;;;;2.53;0.60;;;9.50;99.90;;;;;;5010955;28;20653;-53
2022/09/27 06:45:34;;;;;;;1.30;0.60;;;9.50;99.90;;;;;;5014782;28;20194;-53
2022/09/27 06:48:02;;;;;;;2.97;0.80;;;9.60;99.90;;;;;;5014077;28;20199;-53
2022/09/27 06:50:31;;;;;;;1.53;0.60;;;9.50;99.90;;;;;;5014910;28;20236;-54
2022/09/27 06:52:58;;;;;;;0.93;0.47;;;9.50;99.90;;;;;;5007824;28;20202;-55
2022/09/27 06:55:25;;;;;;;1.03;0.40;;;9.70;99.90;;;;;;5014155;28;20283;-52
2022/09/27 07:00:46;;;;;;;3.40;0.63;;;9.60;99.90;;;;;;5011155;28;20242;-53
2022/09/27 07:03:14;;;;;;;2.83;0.60;;;9.50;99.90;;;;;;5015318;28;20649;-53
2022/09/27 07:05:41;;;;;;;1.53;0.57;;;9.50;99.90;;;;;;5013274;28;20874;-53
2022/09/27 07:08:11;;;;;;;1.97;0.80;;;9.70;99.90;;;;;;5016091;28;20213;-53
2022/09/27 07:10:39;;;;;;;0.87;0.67;;;9.80;99.90;;;;;;5014967;28;20211;-55
2022/09/27 07:13:08;;;;;;;1.23;0.80;;;9.60;99.90;;;;;;5013563;28;20196;-53
2022/09/27 07:15:36;;;;;;;3.67;0.87;;;9.60;99.90;;;;;;5014954;28;20860;-53
2022/09/27 07:18:04;;;;;;;0.77;0.73;;;9.60;99.90;;;;;;5019405;28;20656;-52
2022/09/27 07:20:31;;;;;;;1.33;0.80;;;9.70;99.90;;;;;;5014648;28;20551;-54
2022/09/27 07:22:58;;;;;;;3.03;0.97;;;9.60;99.90;;;;;;5014100;28;20207;-53
2022/09/27 07:25:25;;;;;;;4.30;1.17;;;9.60;99.90;;;;;;5012439;28;20656;-52
2022/09/27 07:27:52;;;;;;;3.07;0.97;;;9.60;99.90;;;;;;5014008;28;20210;-54
2022/09/27 07:30:20;;;;;;;1.77;0.90;;;9.70;99.90;;;;;;5012676;28;20553;-53
2022/09/27 07:32:47;;;;;;;2.33;1.10;;;9.70;99.90;;;;;;5018418;28;20209;-54
2022/09/27 07:35:14;;;;;;;6.47;1.63;;;9.70;99.90;;;;;;5015392;28;20291;-53
2022/09/27 07:37:41;;;;;;;2.43;1.10;;;9.80;99.90;;;;;;5018062;28;20241;-52
2022/09/27 07:40:09;;;;;;;2.90;1.30;;;9.70;99.90;;;;;;5014541;28;20203;-53
2022/09/27 07:42:40;;;;;;;3.50;1.63;;;9.70;99.90;;;;;;5010243;28;20196;-53
2022/09/27 07:45:08;;;;;;;3.07;1.80;;;9.80;99.90;;;;;;5017847;28;20201;-53
2022/09/27 07:47:40;;;;;;;1.87;1.50;;;9.70;99.90;;;;;;5017072;28;20238;-54
2022/09/27 07:50:09;;;;;;;4.17;1.90;;;9.80;99.90;;;;;;5016969;28;20355;-54
2022/09/27 07:52:40;;;;;;;2.30;1.63;;;9.80;99.90;;;;;;5012248;28;20203;-54
2022/09/27 07:55:09;;;;;;;3.93;1.90;;;9.90;99.90;;;;;;5018528;28;20206;-54
2022/09/27 07:57:36;;;;;;;3.60;2.47;;;9.90;99.90;;;;;;5021681;28;20635;-54
2022/09/27 08:00:05;;;;;;;4.17;2.17;;;10.00;99.90;;;;;;5021000;28;20229;-53
2022/09/27 08:02:32;;;;;;;4.87;2.30;;;9.90;99.90;;;;;;5021400;28;20218;-54
2022/09/27 08:04:59;;;;;;;4.33;2.50;;;9.90;99.90;;;;;;5020924;28;20209;-53
2022/09/27 08:07:27;;;;;;;4.03;2.70;;;9.90;99.90;;;;;;5020665;28;20222;-55
2022/09/27 08:09:55;;;;;;;4.33;3.47;;;9.80;99.90;;;;;;5021847;28;20203;-54
2022/09/27 08:12:21;;;;;;;6.93;3.70;;;9.90;99.90;;;;;;5019067;28;20204;-52
2022/09/27 08:14:49;;;;;;;4.07;3.67;;;10.00;99.90;;;;;;5018852;28;20944;-55
2022/09/27 08:17:16;;;;;;;5.03;3.40;;;10.10;99.90;;;;;;5018930;28;20213;-54
2022/09/27 08:19:44;;;;;;;4.70;3.17;;;10.00;99.90;;;;;;5021950;28;20256;-54
2022/09/27 08:22:12;;;;;;;7.33;4.00;;;10.00;99.90;;;;;;5019803;28;20200;-54
2022/09/27 08:24:40;;;;;;;6.00;3.57;;;10.00;99.90;;;;;;5019589;28;20205;-53
2022/09/27 08:27:07;;;;;;;4.20;3.03;;;10.00;99.90;;;;;;5021062;28;20206;-53
2022/09/27 08:29:40;;;;;;;6.50;3.50;;;10.10;99.90;;;;;;5017216;28;20259;-53
2022/09/27 08:32:11;;;;;;;6.47;3.70;;;10.10;99.90;;;;;;5022678;28;20224;-52
2022/09/27 08:34:38;;;;;;;3.90;3.50;;;10.00;99.90;;;;;;5020976;28;20289;-52
2022/09/27 08:37:05;;;;;;;4.17;3.20;;;10.10;99.90;;;;;;5023577;28;20219;-54
2022/09/27 08:39:32;;;;;;;4.77;3.43;;;10.10;99.90;;;;;;5026993;28;20241;-54
2022/09/27 08:42:24;;;;;;;3.30;3.00;;;10.00;99.90;;;;;;5013679;28;20203;-53
2022/09/27 08:45:11;;;;;;;5.03;3.17;;;10.10;99.90;;;;;;5014551;28;20206;-53
2022/09/27 08:47:48;;;;;;;7.40;3.60;;;10.00;99.90;;;;;;5014958;28;20209;-53
2022/09/27 08:50:37;;;;;;;5.13;3.43;;;10.00;99.90;;;;;;5027696;28;20238;-53
2022/09/27 08:53:27;;;;;;;5.50;3.43;;;10.00;99.90;;;;;;5022215;28;20662;-54
2022/09/27 08:55:56;;;;;;;5.67;3.40;;;9.90;99.90;;;;;;5018827;28;20660;-55
2022/09/27 08:58:35;;;;;;;5.33;3.30;;;10.00;99.90;;;;;;5027195;28;20270;-54
2022/09/27 09:01:06;;;;;;;4.77;3.70;;;10.10;99.90;;;;;;5021854;28;20219;-54
2022/09/27 09:03:38;;;;;;;5.77;3.33;;;10.10;99.90;;;;;;5020874;28;20196;-53
2022/09/27 09:06:18;;;;;;;5.13;3.27;;;10.00;99.90;;;;;;5026423;28;20198;-52
2022/09/27 09:08:44;;;;;;;7.37;3.00;;;10.10;99.90;;;;;;5016828;28;20195;-54
2022/09/27 09:14:25;;;;;;;5.57;3.10;;;10.00;99.90;;;;;;5016870;28;20247;-54
2022/09/27 09:17:35;;;;;;;4.80;3.13;;;10.10;99.90;;;;;;5010456;28;20219;-54
2022/09/27 09:20:34;;;;;;;5.07;3.53;;;10.00;99.90;;;;;;5022787;28;20836;-53
2022/09/27 09:23:49;;;;;;;6.73;3.40;;;10.00;99.90;;;;;;5029526;28;20226;-54
2022/09/27 09:26:26;;;;;;;3.20;2.60;;;9.90;99.90;;;;;;5020877;28;20229;-53
2022/09/27 09:29:13;;;;;;;6.23;2.50;;;9.80;99.90;;;;;;5017956;28;20199;-53
2022/09/27 09:32:06;;;;;;;2.90;2.13;;;9.70;99.90;;;;;;5021637;28;20282;-53
2022/09/27 09:34:42;;;;;;;2.10;1.90;;;9.70;99.90;;;;;;5017362;28;20210;-53
2022/09/27 09:37:30;;;;;;;2.53;1.37;;;9.90;99.90;;;;;;5022447;28;20632;-54
2022/09/27 09:40:02;;;;;;;3.43;1.20;;;9.80;99.90;;;;;;5022801;28;20218;-54
2022/09/27 09:42:42;;;;;;;0.67;0.67;;;9.90;99.90;;;;;;5017322;28;20289;-54
2022/09/27 09:45:18;;;;;;;1.33;0.70;;;9.70;99.90;;;;;;5020907;28;20206;-54
2022/09/27 09:47:56;;;;;;;3.07;0.80;;;9.70;99.90;;;;;;5020674;28;20233;-56
2022/09/27 09:50:30;;;;;;;1.80;1.30;;;9.80;99.90;;;;;;5023422;28;20235;-55
2022/09/27 09:53:09;;;;;;;2.17;1.50;;;10.00;99.90;;;;;;5018727;28;20202;-54
2022/09/27 09:55:37;;;;;;;5.27;2.03;;;10.00;99.90;;;;;;5020786;28;20195;-54
2022/09/27 09:58:22;;;;;;;3.90;1.90;;;10.10;99.90;;;;;;5017216;28;20219;-55
2022/09/27 10:00:53;;;;;;;2.80;1.47;;;10.10;99.90;;;;;;5020393;28;20686;-53
2022/09/27 10:03:20;;;;;;;2.33;1.33;;;10.00;99.90;;;;;;5020574;28;20685;-54
2022/09/27 10:05:47;;;;;;;2.13;1.50;;;9.80;99.90;;;;;;5015141;28;20336;-53
2022/09/27 10:08:20;;;;;;;4.37;1.23;;;9.90;99.90;;;;;;5019126;28;20205;-54
2022/09/27 10:10:47;;;;;;;2.40;1.40;;;10.00;99.90;;;;;;5020628;28;20295;-53
2022/09/27 10:13:20;;;;;;;4.47;1.40;;;10.20;99.90;;;;;;5019479;28;20750;-54
2022/09/27 10:15:55;;;;;;;2.30;0.50;;;10.30;99.90;;;;;;5029897;28;20568;-54
2022/09/27 10:18:23;;;;;;;1.67;0.60;;;10.20;99.90;;;;;;5021189;28;20307;-54
2022/09/27 10:20:57;;;;;;;3.10;0.53;;;9.90;99.90;;;;;;5019075;28;20207;-53
2022/09/27 10:23:25;;;;;;;1.13;0.30;;;9.90;99.90;;;;;;5023472;28;20228;-53
2022/09/27 10:25:58;;;;;;;1.23;0.83;;;9.90;99.90;;;;;;5020801;28;20228;-53
2022/09/27 10:28:37;;;;;;;2.00;0.40;;;10.00;99.90;;;;;;5024913;28;20203;-53
2022/09/27 10:31:09;;;;;;;2.70;0.50;;;10.00;99.90;;;;;;5020856;28;20193;-54
2022/09/27 10:33:38;;;;;;;2.10;0.50;;;10.00;99.90;;;;;;5017344;28;20255;-54
2022/09/27 10:39:22;;;;;;;2.53;0.50;;;10.00;99.90;;;;;;5024267;28;20235;-52
2022/09/27 10:41:49;;;;;;;0.73;0.40;;;10.00;99.90;;;;;;5017984;28;20197;-53
2022/09/27 10:44:19;;;;;;;2.37;0.50;;;9.90;99.90;;;;;;5026339;28;20198;-54
2022/09/27 10:46:52;;;;;;;3.33;0.60;;;9.80;99.90;;;;;;5021793;28;20210;-53
2022/09/27 10:49:34;;;;;;;1.33;0.30;;;9.80;99.90;;;;;;5015991;28;20724;-53
2022/09/27 10:52:15;;;;;;;0.63;0.30;;;9.90;99.90;;;;;;5033827;28;20650;-53
2022/09/27 10:55:04;;;;;;;2.60;0.60;;;9.80;99.90;;;;;;5019040;28;20199;-53
2022/09/27 10:57:31;;;;;;;1.30;0.30;;;9.80;99.90;;;;;;5028155;28;20240;-54
2022/09/27 11:00:27;;;;;;;1.23;0.40;;;9.90;99.90;;;;;;5031004;28;20291;-51
2022/09/27 11:03:11;;;;;;;2.43;0.63;;;9.90;99.90;;;;;;5021354;28;20251;-54
2022/09/27 11:05:39;;;;;;;0.97;0.43;;;9.90;99.90;;;;;;5027544;28;20243;-53
2022/09/27 11:08:18;;;;;;;2.53;0.40;;;10.00;99.90;;;;;;5017750;28;20264;-53
2022/09/27 11:11:13;;;;;;;1.83;0.40;;;10.00;99.90;;;;;;5036860;28;20215;-53
2022/09/27 11:13:40;;;;;;;0.57;0.30;;;10.00;99.90;;;;;;5017657;28;20204;-53
2022/09/27 11:16:28;;;;;;;2.40;0.60;;;10.00;99.90;;;;;;5015506;28;20212;-53
2022/09/27 11:19:34;;;;;;;0.67;0.50;;;10.00;99.90;;;;;;5018752;28;20208;-52
2022/09/27 11:22:25;;;;;;;0.80;0.40;;;10.10;99.90;;;;;;5014561;28;20208;-54
2022/09/27 11:24:59;;;;;;;0.83;0.40;;;10.20;99.90;;;;;;5016276;28;20207;-53
2022/09/27 11:27:26;;;;;;;1.00;0.33;;;10.20;99.90;;;;;;5018560;28;20670;-54
2022/09/27 11:30:15;;;;;;;3.10;0.60;;;10.30;99.90;;;;;;5014871;28;20194;-53
2022/09/27 11:33:03;;;;;;;1.50;0.47;;;10.50;99.90;;;;;;5014615;28;20193;-53
2022/09/27 11:35:46;;;;;;;1.47;0.60;;;10.30;99.90;;;;;;5014340;28;20207;-54
2022/09/27 11:38:17;;;;;;;1.07;0.37;;;10.30;99.90;;;;;;5010572;28;20235;-54
2022/09/27 11:41:32;;;;;;;1.27;0.47;;;10.30;99.90;;;;;;5019150;28;20200;-52
2022/09/27 11:44:10;;;;;;;0.87;0.40;;;10.20;99.90;;;;;;5013006;28;20222;-53
2022/09/27 11:46:39;;;;;;;1.43;0.40;;;10.30;99.90;;;;;;5011429;28;20213;-53
2022/09/27 11:49:37;;;;;;;0.50;0.33;;;10.50;99.90;;;;;;5016677;28;20240;-54
2022/09/27 11:52:16;;;;;;;1.07;0.30;;;10.60;99.90;;;;;;5017530;28;20557;-54
2022/09/27 11:55:04;;;;;;;1.63;0.40;;;10.60;99.90;;;;;;5014067;28;20196;-54
2022/09/27 11:57:37;;;;;;;1.50;0.30;;;10.90;99.90;;;;;;5014265;28;20214;-53
2022/09/27 12:00:23;;;;;;;0.53;0.47;;;11.00;99.90;;;;;;5013873;28;21809;-53
2022/09/27 12:03:29;;;;;;;3.50;1.27;;;11.00;99.90;;;;;;5017008;28;20642;-51
2022/09/27 12:06:05;;;;;;;4.00;0.70;;;10.80;99.90;;;;;;5017356;28;20196;-53
2022/09/27 12:08:45;;;;;;;0.93;0.80;;;10.80;99.90;;;;;;5013237;28;20581;-53
2022/09/27 12:11:26;;;;;;;1.73;0.80;;;10.70;99.90;;;;;;5013815;28;20195;-53
2022/09/27 12:14:10;;;;;;;2.93;0.80;;;10.80;99.90;;;;;;5013202;28;20333;-53
2022/09/27 12:16:40;;;;;;;1.10;0.57;;;10.90;99.90;;;;;;5015987;28;20205;-52
2022/09/27 12:19:17;;;;;;;3.87;0.50;;;10.90;99.90;;;;;;5013090;28;20312;-52
2022/09/27 12:21:44;;;;;;;2.10;0.40;;;10.80;99.90;;;;;;5013888;28;20286;-53
2022/09/27 12:24:19;;;;;;;1.27;0.40;;;10.60;99.90;;;;;;5012117;28;20196;-53
2022/09/27 12:26:56;;;;;;;2.63;0.70;;;10.70;99.90;;;;;;5016949;28;20559;-55
2022/09/27 12:29:32;;;;;;;1.53;0.47;;;10.80;99.90;;;;;;5019843;28;20198;-54
2022/09/27 12:32:18;;;;;;;1.07;0.50;;;11.00;99.90;;;;;;5012262;28;22681;-54
2022/09/27 12:35:10;;;;;;;1.23;0.67;;;11.20;99.90;;;;;;5017209;28;20674;-53
2022/09/27 12:37:45;;;;;;;0.77;0.57;;;11.30;99.90;;;;;;5020112;28;20267;-53
2022/09/27 12:40:17;;;;;;;1.73;0.30;;;11.40;99.90;;;;;;5018469;28;20202;-52
2022/09/27 12:42:48;;;;;;;0.43;0.23;;;11.10;99.90;;;;;;5016379;28;20353;-53
2022/09/27 12:45:20;;;;;;;1.50;0.63;;;11.30;99.90;;;;;;5021498;28;20200;-53
2022/09/27 12:48:09;;;;;;;0.50;0.40;;;11.50;99.90;;;;;;5017876;28;20204;-52
2022/09/27 12:50:43;;;;;;;1.70;0.40;;;11.40;99.90;;;;;;5013219;28;20238;-52
2022/09/27 12:53:22;;;;;;;0.93;0.60;;;11.20;99.90;;;;;;5022600;28;20203;-52
2022/09/27 12:56:11;;;;;;;1.63;0.30;;;11.20;99.90;;;;;;5026128;28;20206;-53
2022/09/27 12:58:40;;;;;;;1.77;0.20;;;11.20;99.90;;;;;;5025466;28;20230;-53
2022/09/27 13:01:22;;;;;;;1.07;0.67;;;11.20;99.90;;;;;;5023565;28;20601;-54
2022/09/27 13:04:17;;;;;;;0.50;0.20;;;11.20;99.90;;;;;;5023629;28;20253;-54
2022/09/27 13:07:13;;;;;;;0.60;0.23;;;11.20;99.90;;;;;;5023289;28;20200;-53
2022/09/27 13:09:54;;;;;;;1.43;0.20;;;11.20;99.90;;;;;;5029343;28;20245;-54
2022/09/27 13:12:26;;;;;;;0.70;0.40;;;11.40;99.90;;;;;;5026004;28;20206;-53
2022/09/27 13:14:59;;;;;;;0.50;0.20;;;11.50;99.90;;;;;;5025235;28;20295;-53
2022/09/27 13:17:43;;;;;;;2.10;0.30;;;11.40;99.90;;;;;;5022350;28;20194;-53
2022/09/27 13:20:35;;;;;;;1.13;0.40;;;11.30;99.90;;;;;;5019059;28;20210;-53
2022/09/27 13:23:17;;;;;;;1.53;0.30;;;11.60;99.90;;;;;;5026568;28;20246;-53
2022/09/27 13:25:55;;;;;;;1.13;0.30;;;11.70;99.90;;;;;;5022562;28;20196;-53
2022/09/27 13:28:28;;;;;;;0.60;0.30;;;11.50;99.90;;;;;;5016544;28;20538;-53
2022/09/27 13:30:56;;;;;;;0.80;0.43;;;11.50;99.90;;;;;;5019188;28;20250;-52
2022/09/27 13:33:45;;;;;;;0.67;0.30;;;11.60;99.90;;;;;;5017273;28;20702;-52